createdAt,value
2019-05-28T00:00:14.248Z,53.16
2019-05-28T00:02:43.733Z,53.00
2019-05-28T00:05:13.483Z,53.25
2019-05-28T00:07:42.995Z,53.40
2019-05-28T00:10:12.704Z,53.41
2019-05-28T00:12:42.175Z,53.34
2019-05-28T00:15:13.419Z,53.48
2019-05-28T00:17:42.909Z,53.50
2019-05-28T00:20:12.699Z,53.41
2019-05-28T00:22:42.200Z,53.41
2019-05-28T00:25:11.901Z,53.19
2019-05-28T00:27:41.388Z,53.24
2019-05-28T00:30:19.851Z,53.51
2019-05-28T00:32:42.172Z,53.51
2019-05-28T00:35:12.229Z,53.56
2019-05-28T00:37:41.736Z,53.50
2019-05-28T00:40:11.937Z,53.72
2019-05-28T00:42:42.440Z,53.72
2019-05-28T00:45:12.746Z,53.90
2019-05-28T00:47:42.265Z,53.92
2019-05-28T00:50:12.111Z,53.85
2019-05-28T00:52:41.610Z,53.53
2019-05-28T00:55:11.524Z,53.72
2019-05-28T00:57:43.328Z,53.53
2019-05-28T01:00:13.482Z,53.62
2019-05-28T01:02:42.987Z,53.93
2019-05-28T01:05:15.413Z,54.22
2019-05-28T01:07:44.924Z,54.29
2019-05-28T01:10:14.597Z,54.37
2019-05-28T01:12:44.109Z,54.45
2019-05-28T01:15:13.791Z,54.49
2019-05-28T01:17:43.335Z,54.73
2019-05-28T01:20:13.015Z,54.77
2019-05-28T01:22:42.513Z,54.87
2019-05-28T01:25:12.009Z,55.21
2019-05-28T01:27:41.513Z,55.67
2019-05-28T01:30:12.252Z,56.07
2019-05-28T01:32:41.738Z,56.10
2019-05-28T01:35:11.322Z,55.63
2019-05-28T01:37:40.973Z,55.76
2019-05-28T01:40:10.668Z,55.62
2019-05-28T01:42:40.171Z,55.84
2019-05-28T01:45:10.145Z,55.24
2019-05-28T01:47:39.678Z,54.91
2019-05-28T01:50:09.363Z,55.15
2019-05-28T01:52:38.959Z,55.11
2019-05-28T01:55:08.719Z,55.11
2019-05-28T01:57:38.256Z,55.23
2019-05-28T02:00:08.377Z,54.56
2019-05-28T02:02:37.963Z,54.91
2019-05-28T02:05:08.277Z,55.42
2019-05-28T02:07:37.786Z,54.98
2019-05-28T02:10:07.687Z,54.81
2019-05-28T02:12:37.186Z,54.67
2019-05-28T02:15:07.457Z,54.40
2019-05-28T02:17:38.041Z,54.18
2019-05-28T02:20:08.641Z,53.93
2019-05-28T02:22:38.161Z,53.81
2019-05-28T02:25:08.015Z,53.48
2019-05-28T02:27:37.531Z,53.44
2019-05-28T02:30:09.266Z,53.19
2019-05-28T02:32:38.912Z,53.34
2019-05-28T02:35:08.878Z,53.35
2019-05-28T02:37:38.405Z,53.50
2019-05-28T02:40:08.224Z,53.43
2019-05-28T02:42:37.723Z,53.68
2019-05-28T02:45:08.592Z,53.72
2019-05-28T02:47:38.200Z,53.58
2019-05-28T02:50:08.205Z,53.44
2019-05-28T02:52:37.981Z,53.49
2019-05-28T02:55:07.750Z,53.55
2019-05-28T02:57:37.921Z,53.49
2019-05-28T03:00:07.901Z,53.29
2019-05-28T03:02:37.684Z,53.38
2019-05-28T03:05:07.259Z,53.22
2019-05-28T03:07:38.304Z,53.70
2019-05-28T03:10:08.093Z,53.81
2019-05-28T03:12:37.602Z,54.22
2019-05-28T03:15:07.184Z,54.37
2019-05-28T03:17:37.047Z,54.62
2019-05-28T03:20:07.219Z,54.35
2019-05-28T03:22:38.478Z,54.76
2019-05-28T03:25:08.676Z,54.55
2019-05-28T03:27:38.212Z,54.35
2019-05-28T03:30:08.059Z,54.05
2019-05-28T03:32:37.859Z,54.05
2019-05-28T03:35:07.458Z,54.31
2019-05-28T03:37:37.249Z,54.06
2019-05-28T03:40:08.395Z,54.22
2019-05-28T03:42:37.911Z,54.15
2019-05-28T03:45:07.435Z,54.22
2019-05-28T03:47:36.951Z,54.30
2019-05-28T03:50:06.749Z,54.39
2019-05-28T03:52:37.235Z,54.08
2019-05-28T03:55:06.890Z,54.25
2019-05-28T03:57:36.415Z,54.33
2019-05-28T04:00:06.519Z,54.28
2019-05-28T04:02:36.016Z,54.33
2019-05-28T04:05:05.679Z,54.80
2019-05-28T04:07:35.194Z,54.83
2019-05-28T04:10:05.104Z,54.94
2019-05-28T04:12:34.627Z,55.09
2019-05-28T04:15:04.488Z,55.16
2019-05-28T04:17:33.986Z,55.16
2019-05-28T04:20:04.289Z,54.65
2019-05-28T04:22:33.805Z,54.63
2019-05-28T04:25:03.494Z,54.53
2019-05-28T04:27:32.990Z,54.42
2019-05-28T04:30:02.531Z,53.93
2019-05-28T04:32:40.405Z,53.92
2019-05-28T04:35:03.335Z,54.00
2019-05-28T04:37:32.850Z,54.78
2019-05-28T04:40:02.392Z,55.47
2019-05-28T04:42:31.903Z,55.77
2019-05-28T04:45:01.425Z,56.12
2019-05-28T04:47:30.945Z,55.95
2019-05-28T04:50:00.438Z,55.93
2019-05-28T04:52:30.932Z,55.08
2019-05-28T04:55:01.651Z,54.96
2019-05-28T04:57:31.156Z,54.35
2019-05-28T05:00:00.677Z,54.50
2019-05-28T05:02:31.249Z,53.61
2019-05-28T05:05:00.765Z,52.99
2019-05-28T05:07:30.283Z,52.50
2019-05-28T05:09:59.785Z,52.97
2019-05-28T05:12:29.345Z,53.04
2019-05-28T05:14:58.861Z,53.00
2019-05-28T05:17:28.402Z,52.54
2019-05-28T05:19:58.882Z,52.52
2019-05-28T05:22:28.388Z,53.27
2019-05-28T05:24:57.893Z,53.42
2019-05-28T05:27:27.405Z,53.55
2019-05-28T05:29:56.920Z,54.29
2019-05-28T05:32:27.877Z,54.21
2019-05-28T05:34:57.497Z,53.99
2019-05-28T05:37:27.013Z,54.04
2019-05-28T05:39:56.525Z,54.51
2019-05-28T05:42:26.133Z,54.65
2019-05-28T05:44:55.679Z,55.52
2019-05-28T05:47:25.211Z,56.15
2019-05-28T05:49:54.921Z,56.71
2019-05-28T05:52:24.417Z,56.76
2019-05-28T05:54:53.929Z,56.24
2019-05-28T05:57:23.437Z,56.37
2019-05-28T05:59:53.019Z,57.36
2019-05-28T06:02:23.217Z,56.81
2019-05-28T06:04:52.895Z,57.20
2019-05-28T06:07:22.424Z,58.51
2019-05-28T06:09:51.964Z,58.39
2019-05-28T06:12:21.451Z,59.35
2019-05-28T06:14:51.165Z,57.62
2019-05-28T06:17:20.661Z,57.95
2019-05-28T06:19:50.192Z,56.94
2019-05-28T06:22:19.711Z,56.27
2019-05-28T06:24:49.245Z,56.93
2019-05-28T06:27:19.525Z,57.34
2019-05-28T06:29:49.119Z,56.76
2019-05-28T06:32:18.611Z,56.47
2019-05-28T06:34:48.133Z,55.69
2019-05-28T06:37:17.798Z,55.24
2019-05-28T06:39:47.308Z,54.71
2019-05-28T06:42:16.821Z,54.88
2019-05-28T06:44:46.375Z,54.31
2019-05-28T06:47:15.854Z,54.05
2019-05-28T06:49:45.361Z,52.92
2019-05-28T06:52:14.885Z,51.91
2019-05-28T06:54:44.405Z,51.68
2019-05-28T06:57:22.897Z,51.79
2019-05-28T06:59:46.249Z,50.27
2019-05-28T07:02:15.766Z,49.78
2019-05-28T07:04:45.304Z,50.28
2019-05-28T07:07:14.795Z,49.73
2019-05-28T07:09:44.310Z,49.96
2019-05-28T07:12:13.799Z,49.17
2019-05-28T07:14:44.404Z,48.95
2019-05-28T07:17:13.925Z,49.84
2019-05-28T07:19:43.454Z,49.62
2019-05-28T07:22:12.967Z,49.56
2019-05-28T07:24:42.483Z,48.06
2019-05-28T07:27:11.997Z,48.40
2019-05-28T07:29:41.518Z,48.61
2019-05-28T07:32:11.051Z,47.81
2019-05-28T07:34:40.591Z,48.18
2019-05-28T07:37:10.115Z,48.32
2019-05-28T07:39:39.933Z,48.13
2019-05-28T07:42:09.742Z,48.81
2019-05-28T07:44:39.249Z,49.04
2019-05-28T07:47:11.198Z,50.32
2019-05-28T07:49:40.075Z,49.68
2019-05-28T07:52:09.598Z,49.53
2019-05-28T07:54:39.645Z,50.11
2019-05-28T07:57:09.221Z,50.06
2019-05-28T07:59:38.731Z,50.37
2019-05-28T08:02:08.255Z,49.83
2019-05-28T08:04:46.908Z,48.93
2019-05-28T08:07:10.025Z,48.83
2019-05-28T08:09:39.540Z,48.09
2019-05-28T08:12:09.053Z,48.39
2019-05-28T08:14:38.564Z,49.16
2019-05-28T08:17:08.135Z,49.24
2019-05-28T08:19:37.690Z,50.99
2019-05-28T08:22:07.256Z,50.24
2019-05-28T08:24:36.857Z,50.37
2019-05-28T08:27:06.356Z,50.35
2019-05-28T08:29:36.846Z,50.03
2019-05-28T08:32:06.432Z,50.34
2019-05-28T08:34:35.931Z,50.62
2019-05-28T08:37:06.684Z,49.57
2019-05-28T08:39:36.441Z,50.33
2019-05-28T08:42:06.010Z,50.70
2019-05-28T08:44:35.549Z,50.58
2019-05-28T08:47:05.073Z,49.97
2019-05-28T08:49:34.564Z,50.02
2019-05-28T08:52:04.151Z,49.68
2019-05-28T08:54:33.662Z,49.17
2019-05-28T08:57:03.217Z,49.73
2019-05-28T08:59:33.656Z,50.23
2019-05-28T09:02:03.202Z,49.78
2019-05-28T09:04:32.709Z,48.56
2019-05-28T09:07:02.225Z,48.73
2019-05-28T09:09:31.734Z,49.01
2019-05-28T09:12:01.247Z,48.17
2019-05-28T09:14:54.042Z,47.70
2019-05-28T09:17:02.090Z,48.67
2019-05-28T09:19:31.633Z,48.04
2019-05-28T09:22:01.128Z,48.19
2019-05-28T09:24:30.655Z,48.22
2019-05-28T09:27:00.300Z,47.48
2019-05-28T09:29:29.786Z,47.83
2019-05-28T09:31:59.287Z,47.93
2019-05-28T09:34:28.787Z,47.67
2019-05-28T09:36:58.278Z,47.58
2019-05-28T09:39:27.799Z,48.63
2019-05-28T09:41:57.303Z,49.86
2019-05-28T09:44:26.890Z,50.28
2019-05-28T09:46:56.423Z,50.09
2019-05-28T09:49:25.913Z,50.27
2019-05-28T09:51:55.826Z,49.54
2019-05-28T09:54:25.857Z,48.15
2019-05-28T09:57:00.803Z,49.00
2019-05-28T09:59:41.054Z,49.68
2019-05-28T10:02:02.889Z,52.44
2019-05-28T10:04:47.467Z,49.55
2019-05-28T10:07:04.543Z,50.21
2019-05-28T10:09:33.996Z,49.03
2019-05-28T10:12:03.573Z,49.46
2019-05-28T10:14:33.197Z,48.61
2019-05-28T10:17:02.835Z,47.88
2019-05-28T10:19:32.315Z,46.70
2019-05-28T10:22:01.874Z,47.62
2019-05-28T10:24:31.382Z,47.42
2019-05-28T10:27:00.974Z,48.20
2019-05-28T10:29:33.023Z,47.99
2019-05-28T10:32:02.708Z,48.29
2019-05-28T10:34:32.347Z,48.11
2019-05-28T10:37:01.883Z,47.80
2019-05-28T10:39:31.367Z,48.46
2019-05-28T10:42:00.902Z,48.20
2019-05-28T10:44:30.551Z,48.89
2019-05-28T10:47:00.079Z,48.30
2019-05-28T10:49:29.583Z,48.23
2019-05-28T10:51:59.160Z,47.95
2019-05-28T10:54:28.655Z,47.18
2019-05-28T10:56:58.163Z,47.20
2019-05-28T10:59:27.671Z,47.31
2019-05-28T11:01:57.170Z,46.56
2019-05-28T11:04:26.655Z,46.85
2019-05-28T11:06:56.152Z,46.57
2019-05-28T11:09:25.653Z,46.38
2019-05-28T11:11:55.144Z,46.57
2019-05-28T11:14:24.808Z,46.51
2019-05-28T11:16:54.262Z,47.45
2019-05-28T11:19:23.754Z,47.87
2019-05-28T11:21:53.281Z,46.04
2019-05-28T11:24:22.766Z,46.91
2019-05-28T11:26:52.277Z,48.08
2019-05-28T11:29:21.762Z,46.50
2019-05-28T11:31:51.310Z,46.39
2019-05-28T11:34:20.794Z,45.43
2019-05-28T11:36:50.317Z,46.67
2019-05-28T11:39:19.800Z,47.01
2019-05-28T11:41:49.391Z,45.99
2019-05-28T11:44:18.874Z,46.51
2019-05-28T11:46:48.381Z,47.21
2019-05-28T11:49:17.877Z,46.62
2019-05-28T11:51:47.487Z,47.44
2019-05-28T11:54:17.016Z,45.84
2019-05-28T11:56:46.514Z,46.51
2019-05-28T11:59:16.013Z,46.06
2019-05-28T12:01:45.531Z,44.84
2019-05-28T12:04:15.026Z,45.77
2019-05-28T12:06:44.525Z,47.59
2019-05-28T12:09:14.051Z,48.48
2019-05-28T12:11:43.524Z,45.80
2019-05-28T12:14:13.104Z,46.42
2019-05-28T12:16:42.608Z,48.05
2019-05-28T12:19:12.169Z,45.51
2019-05-28T12:21:41.689Z,45.82
2019-05-28T12:24:11.200Z,45.59
2019-05-28T12:26:40.823Z,47.13
2019-05-28T12:29:10.375Z,47.49
2019-05-28T12:31:39.887Z,47.56
2019-05-28T12:34:09.396Z,48.47
2019-05-28T12:36:38.931Z,48.48
2019-05-28T12:39:08.938Z,49.75
2019-05-28T12:41:38.466Z,49.38
2019-05-28T12:44:07.951Z,46.53
2019-05-28T12:46:37.544Z,46.24
2019-05-28T12:49:07.035Z,45.98
2019-05-28T12:51:36.546Z,46.82
2019-05-28T12:54:06.112Z,46.07
2019-05-28T12:56:35.626Z,46.58
2019-05-28T12:59:05.215Z,45.82
2019-05-28T13:01:34.698Z,46.22
2019-05-28T13:04:04.596Z,45.79
2019-05-28T13:06:34.280Z,46.28
2019-05-28T13:09:06.340Z,45.98
2019-05-28T13:11:35.835Z,46.19
2019-05-28T13:14:05.460Z,46.60
2019-05-28T13:16:34.970Z,46.33
2019-05-28T13:19:05.444Z,46.97
2019-05-28T13:21:34.944Z,47.60
2019-05-28T13:24:05.373Z,47.53
2019-05-28T13:26:34.859Z,46.07
2019-05-28T13:29:04.441Z,48.17
2019-05-28T13:31:33.949Z,45.83
2019-05-28T13:34:04.768Z,45.63
2019-05-28T13:36:34.274Z,46.32
2019-05-28T13:39:04.834Z,45.74
2019-05-28T13:41:34.392Z,45.53
2019-05-28T13:44:07.735Z,44.99
2019-05-28T13:46:35.168Z,44.75
2019-05-28T13:49:04.756Z,44.95
2019-05-28T13:51:34.270Z,44.65
2019-05-28T13:54:03.774Z,45.74
2019-05-28T13:56:33.482Z,45.54
2019-05-28T13:59:02.995Z,45.64
2019-05-28T14:01:32.485Z,45.05
2019-05-28T14:04:01.989Z,44.14
2019-05-28T14:06:32.468Z,44.34
2019-05-28T14:09:01.963Z,45.66
2019-05-28T14:11:33.032Z,46.37
2019-05-28T14:14:02.565Z,45.82
2019-05-28T14:16:32.052Z,45.69
2019-05-28T14:19:01.565Z,45.42
2019-05-28T14:21:31.061Z,45.67
2019-05-28T14:24:00.562Z,45.59
2019-05-28T14:26:30.060Z,44.90
2019-05-28T14:28:59.565Z,43.59
2019-05-28T14:31:29.070Z,44.29
2019-05-28T14:33:58.583Z,44.27
2019-05-28T14:36:28.095Z,44.67
2019-05-28T14:39:03.190Z,44.39
2019-05-28T14:41:28.808Z,43.75
2019-05-28T14:43:58.322Z,44.22
2019-05-28T14:46:27.841Z,44.07
2019-05-28T14:48:57.350Z,44.14
2019-05-28T14:51:26.830Z,44.32
2019-05-28T14:53:56.364Z,43.80
2019-05-28T14:56:25.878Z,43.99
2019-05-28T14:58:55.374Z,43.97
2019-05-28T15:01:24.912Z,44.71
2019-05-28T15:03:54.402Z,43.53
2019-05-28T15:06:23.934Z,43.78
2019-05-28T15:08:53.451Z,44.92
2019-05-28T15:11:22.959Z,47.07
2019-05-28T15:13:52.460Z,46.94
2019-05-28T15:16:22.007Z,47.14
2019-05-28T15:18:51.547Z,48.46
2019-05-28T15:21:21.129Z,47.67
2019-05-28T15:23:50.741Z,48.94
2019-05-28T15:26:20.253Z,47.68
2019-05-28T15:28:49.736Z,45.63
2019-05-28T15:31:19.240Z,48.36
2019-05-28T15:33:48.729Z,48.83
2019-05-28T15:36:18.241Z,48.68
2019-05-28T15:38:47.717Z,47.58
2019-05-28T15:41:17.212Z,47.83
2019-05-28T15:43:46.703Z,49.10
2019-05-28T15:46:16.205Z,48.76
2019-05-28T15:48:45.725Z,49.49
2019-05-28T15:51:15.231Z,47.39
2019-05-28T15:53:44.719Z,47.46
2019-05-28T15:56:14.230Z,48.23
2019-05-28T15:58:43.709Z,48.43
2019-05-28T16:01:13.199Z,48.57
2019-05-28T16:03:42.689Z,48.81
2019-05-28T16:06:12.261Z,48.81
2019-05-28T16:08:41.750Z,49.34
2019-05-28T16:11:11.242Z,49.43
2019-05-28T16:13:40.738Z,50.30
2019-05-28T16:16:10.370Z,50.14
2019-05-28T16:18:39.836Z,50.36
2019-05-28T16:21:09.354Z,51.22
2019-05-28T16:23:38.845Z,50.45
2019-05-28T16:26:08.365Z,51.24
2019-05-28T16:28:37.857Z,51.39
2019-05-28T16:31:12.335Z,51.40
2019-05-28T16:33:38.577Z,50.38
2019-05-28T16:36:08.109Z,49.96
2019-05-28T16:38:37.610Z,50.15
2019-05-28T16:41:07.117Z,50.19
2019-05-28T16:43:36.642Z,50.01
2019-05-28T16:46:06.964Z,47.73
2019-05-28T16:48:37.446Z,45.91
2019-05-28T16:51:06.949Z,46.05
2019-05-28T16:53:36.573Z,44.01
2019-05-28T16:56:06.130Z,45.12
2019-05-28T16:58:35.678Z,44.13
2019-05-28T17:01:21.962Z,44.72
2019-05-28T17:03:36.590Z,45.02
2019-05-28T17:06:06.120Z,45.23
2019-05-28T17:08:35.669Z,44.71
2019-05-28T17:11:05.225Z,45.00
2019-05-28T17:13:34.785Z,44.97
2019-05-28T17:16:04.381Z,44.72
2019-05-28T17:18:33.908Z,44.89
2019-05-28T17:21:03.408Z,44.71
2019-05-28T17:23:33.926Z,44.61
2019-05-28T17:26:03.438Z,45.00
2019-05-28T17:28:32.910Z,44.88
2019-05-28T17:31:02.490Z,45.29
2019-05-28T17:33:31.996Z,44.32
2019-05-28T17:36:01.507Z,44.34
2019-05-28T17:38:31.035Z,44.26
2019-05-28T17:41:00.646Z,44.62
2019-05-28T17:43:30.134Z,44.34
2019-05-28T17:45:59.732Z,44.97
2019-05-28T17:48:29.253Z,46.13
2019-05-28T17:50:58.815Z,45.41
2019-05-28T17:53:28.292Z,44.92
2019-05-28T17:55:57.812Z,44.74
2019-05-28T17:58:30.853Z,44.97
2019-05-28T18:00:58.518Z,45.40
2019-05-28T18:03:28.009Z,44.99
2019-05-28T18:05:57.520Z,45.59
2019-05-28T18:08:29.375Z,45.30
2019-05-28T18:11:04.056Z,45.65
2019-05-28T18:13:29.794Z,45.31
2019-05-28T18:15:59.431Z,45.36
2019-05-28T18:18:29.094Z,45.50
2019-05-28T18:20:58.642Z,45.43
2019-05-28T18:23:28.474Z,45.98
2019-05-28T18:25:58.010Z,45.33
2019-05-28T18:28:27.573Z,45.69
2019-05-28T18:30:57.515Z,46.38
2019-05-28T18:33:27.316Z,45.80
2019-05-28T18:35:56.842Z,45.59
2019-05-28T18:38:26.339Z,45.82
2019-05-28T18:40:55.970Z,45.28
2019-05-28T18:43:25.534Z,45.87
2019-05-28T18:45:55.037Z,45.77
2019-05-28T18:48:25.551Z,46.17
2019-05-28T18:50:55.051Z,46.50
2019-05-28T18:53:24.646Z,46.34
2019-05-28T18:55:54.283Z,46.74
2019-05-28T18:58:23.824Z,47.23
2019-05-28T19:00:53.336Z,47.21
2019-05-28T19:03:22.832Z,46.95
2019-05-28T19:05:52.353Z,47.37
2019-05-28T19:08:21.846Z,47.30
2019-05-28T19:10:51.333Z,47.66
2019-05-28T19:13:20.833Z,47.70
2019-05-28T19:15:50.351Z,47.60
2019-05-28T19:18:19.834Z,47.64
2019-05-28T19:20:49.408Z,47.72
2019-05-28T19:23:18.960Z,48.30
2019-05-28T19:25:48.493Z,47.60
2019-05-28T19:28:18.742Z,48.12
2019-05-28T19:30:50.469Z,48.66
2019-05-28T19:33:19.777Z,48.58
2019-05-28T19:35:49.350Z,48.05
2019-05-28T19:38:19.266Z,48.34
2019-05-28T19:40:48.785Z,48.36
2019-05-28T19:43:18.296Z,48.56
2019-05-28T19:45:47.852Z,48.76
2019-05-28T19:48:17.362Z,48.90
2019-05-28T19:50:46.891Z,48.49
2019-05-28T19:53:16.461Z,48.35
2019-05-28T19:55:45.958Z,48.24
2019-05-28T19:58:15.581Z,48.03
2019-05-28T20:00:45.099Z,48.25
2019-05-28T20:03:14.625Z,48.76
2019-05-28T20:05:44.136Z,48.96
2019-05-28T20:08:13.777Z,48.57
2019-05-28T20:10:43.346Z,48.68
2019-05-28T20:13:12.862Z,48.59
2019-05-28T20:15:42.348Z,48.54
2019-05-28T20:18:25.923Z,48.91
2019-05-28T20:20:43.098Z,48.61
2019-05-28T20:23:12.665Z,48.44
2019-05-28T20:25:42.170Z,48.34
2019-05-28T20:28:12.676Z,47.84
2019-05-28T20:30:42.158Z,48.55
2019-05-28T20:33:11.700Z,48.84
2019-05-28T20:35:41.276Z,47.21
2019-05-28T20:38:12.464Z,47.36
2019-05-28T20:40:42.207Z,47.15
2019-05-28T20:43:11.756Z,47.22
2019-05-28T20:45:41.353Z,46.95
2019-05-28T20:48:11.850Z,47.09
2019-05-28T20:50:41.340Z,47.70
2019-05-28T20:53:10.837Z,47.86
2019-05-28T20:55:40.334Z,47.90
2019-05-28T20:58:09.838Z,47.47
2019-05-28T21:00:39.583Z,47.87
2019-05-28T21:03:09.076Z,47.68
2019-05-28T21:05:38.566Z,47.78
2019-05-28T21:08:08.337Z,48.31
2019-05-28T21:10:37.854Z,48.20
2019-05-28T21:13:07.496Z,48.33
2019-05-28T21:15:36.998Z,48.33
2019-05-28T21:18:07.372Z,48.39
2019-05-28T21:20:36.845Z,48.32
2019-05-28T21:23:06.369Z,47.91
2019-05-28T21:25:35.855Z,48.01
2019-05-28T21:28:05.427Z,48.19
2019-05-28T21:30:34.941Z,48.71
2019-05-28T21:33:04.439Z,48.72
2019-05-28T21:35:33.926Z,49.17
2019-05-28T21:38:03.524Z,49.54
2019-05-28T21:40:33.012Z,49.23
2019-05-28T21:43:09.355Z,49.18
2019-05-28T21:45:33.704Z,49.61
2019-05-28T21:48:03.215Z,49.33
2019-05-28T21:50:32.704Z,49.18
2019-05-28T21:53:03.212Z,49.56
2019-05-28T21:55:32.789Z,50.11
2019-05-28T21:58:02.285Z,50.34
2019-05-28T22:00:47.919Z,50.30
2019-05-28T22:03:18.450Z,50.12
2019-05-28T22:05:47.947Z,50.22
2019-05-28T22:08:17.433Z,50.59
2019-05-28T22:10:46.948Z,50.73
2019-05-28T22:13:22.262Z,50.85
2019-05-28T22:15:47.786Z,51.54
2019-05-28T22:18:17.319Z,51.72
2019-05-28T22:20:46.817Z,52.05
2019-05-28T22:23:16.320Z,52.24
2019-05-28T22:25:45.809Z,52.32
2019-05-28T22:28:15.402Z,52.11
2019-05-28T22:30:45.054Z,52.42
2019-05-28T22:33:14.547Z,52.59
2019-05-28T22:35:44.156Z,52.59
2019-05-28T22:38:13.752Z,52.86
2019-05-28T22:40:43.254Z,53.03
2019-05-28T22:43:12.757Z,52.88
2019-05-28T22:45:43.303Z,52.83
2019-05-28T22:48:16.756Z,52.19
2019-05-28T22:50:44.218Z,51.99
2019-05-28T22:53:13.742Z,51.75
2019-05-28T22:55:43.228Z,51.57
2019-05-28T22:58:12.729Z,51.27
2019-05-28T23:00:42.214Z,51.06
2019-05-28T23:03:11.701Z,51.03
2019-05-28T23:05:42.131Z,50.67
2019-05-28T23:08:11.629Z,50.87
2019-05-28T23:10:41.140Z,51.02
2019-05-28T23:13:11.239Z,51.61
2019-05-28T23:15:40.717Z,51.39
2019-05-28T23:18:11.202Z,51.96
2019-05-28T23:20:40.689Z,51.91
2019-05-28T23:23:11.365Z,52.64
2019-05-28T23:25:40.949Z,52.81
2019-05-28T23:28:10.458Z,52.71
2019-05-28T23:30:40.942Z,52.84
2019-05-28T23:33:12.995Z,53.07
2019-05-28T23:35:43.827Z,53.15
2019-05-28T23:38:13.731Z,52.93
2019-05-28T23:40:43.222Z,52.70
2019-05-28T23:43:13.825Z,52.47
2019-05-28T23:45:43.484Z,52.33
2019-05-28T23:48:18.288Z,52.19
2019-05-28T23:50:46.032Z,52.26
2019-05-28T23:53:15.604Z,51.91
2019-05-28T23:55:46.243Z,52.26
2019-05-28T23:58:16.490Z,52.46
